Time;durP1;ratioP1;P1;durP2;ratioP2;P2;SDS_P1;SDS_P2;PMS_P1;PMS_P2;Temp;Humidity;BMP_temperature;BMP_pressure;BME280_temperature;BME280_humidity;BME280_pressure;Samples;Min_cycle;Max_cycle;Signal;HPM_P1;HPM_P2
2024/04/19 00:02:17;;;;;;;6.25;1.20;;;7.60;99.90;;;;;;5497614;26;20056;-77
2024/04/19 00:04:43;;;;;;;5.35;0.90;;;7.60;99.90;;;;;;5530352;26;20004;-77
2024/04/19 00:07:08;;;;;;;2.95;0.82;;;7.70;99.90;;;;;;5530149;26;20459;-77
2024/04/19 00:09:34;;;;;;;2.63;0.77;;;8.90;99.90;;;;;;5497385;26;20328;-77
2024/04/19 00:11:59;;;;;;;6.07;0.82;;;7.70;99.90;;;;;;5497269;26;19993;-77
2024/04/19 00:14:25;;;;;;;2.58;0.40;;;7.70;99.90;;;;;;5530242;26;19997;-77
2024/04/19 00:16:50;;;;;;;6.60;0.65;;;7.60;99.90;;;;;;5529737;26;20046;-77
2024/04/19 00:19:16;;;;;;;3.15;0.20;;;7.60;99.90;;;;;;5496727;26;20004;-77
2024/04/19 00:21:41;;;;;;;5.18;0.40;;;7.60;99.90;;;;;;5529259;26;20464;-77
2024/04/19 00:24:07;;;;;;;5.10;0.20;;;8.40;99.90;;;;;;5496673;26;20440;-76
2024/04/19 00:26:33;;;;;;;3.22;0.20;;;7.60;99.90;;;;;;5528913;26;20038;-76
2024/04/19 00:28:58;;;;;;;6.47;1.05;;;7.50;99.90;;;;;;5529053;26;19998;-77
2024/04/19 00:31:24;;;;;;;2.55;0.60;;;7.60;99.90;;;;;;5529240;26;19998;-77
2024/04/19 00:33:49;;;;;;;6.20;0.32;;;7.90;99.90;;;;;;5529274;26;20022;-76
2024/04/19 00:36:15;;;;;;;4.47;0.40;;;7.50;99.90;;;;;;5527969;26;20009;-77
2024/04/19 00:38:42;;;;;;;1.05;0.17;;;7.60;99.90;;;;;;5529281;26;20069;-77
2024/04/19 00:41:07;;;;;;;6.10;0.52;;;7.60;99.90;;;;;;5529602;26;19994;-77
2024/04/19 00:43:33;;;;;;;1.88;0.30;;;7.50;99.90;;;;;;5529938;26;20007;-77
2024/04/19 00:45:58;;;;;;;3.60;0.10;;;7.50;99.90;;;;;;5496534;26;20065;-77
2024/04/19 00:48:26;;;;;;;6.05;0.10;;;7.50;99.90;;;;;;5495847;26;20071;-76
2024/04/19 00:50:59;;;;;;;5.40;0.20;;;7.50;99.90;;;;;;5528743;26;20069;-76
2024/04/19 00:53:30;;;;;;;1.52;0.10;;;7.50;99.90;;;;;;5529403;26;20008;-76
2024/04/19 00:55:58;;;;;;;0.70;0.00;;;7.50;99.90;;;;;;5496516;26;20073;-76
2024/04/19 00:58:28;;;;;;;1.35;0.10;;;7.50;99.90;;;;;;5496244;26;19994;-77
2024/04/19 01:00:55;;;;;;;5.32;0.40;;;7.50;99.90;;;;;;5529284;26;20012;-76
2024/04/19 01:03:21;;;;;;;3.08;0.30;;;7.40;99.90;;;;;;5528790;26;19997;-77
2024/04/19 01:05:46;;;;;;;1.05;0.10;;;7.50;99.90;;;;;;5528565;26;20009;-77
2024/04/19 01:08:12;;;;;;;3.38;0.40;;;7.40;99.90;;;;;;5528219;26;19997;-77
2024/04/19 01:10:39;;;;;;;5.18;0.30;;;7.40;99.90;;;;;;5528590;26;20447;-77
2024/04/19 01:13:06;;;;;;;6.65;0.75;;;7.40;99.90;;;;;;5528289;26;20001;-77
2024/04/19 01:15:36;;;;;;;6.00;0.65;;;7.40;99.90;;;;;;5495981;26;19993;-77
2024/04/19 01:18:03;;;;;;;3.83;0.10;;;7.50;99.90;;;;;;5496150;26;20009;-77
2024/04/19 01:20:29;;;;;;;4.43;0.35;;;7.50;99.90;;;;;;5496080;26;20004;-77
2024/04/19 01:22:55;;;;;;;5.43;0.50;;;7.50;99.90;;;;;;5496324;26;20009;-78
2024/04/19 01:25:34;;;;;;;4.40;0.20;;;7.40;99.90;;;;;;5495769;26;19989;-77
2024/04/19 01:27:59;;;;;;;;;;;7.40;99.90;;;;;;5528894;26;19994;-77
2024/04/19 01:30:25;;;;;;;4.57;0.10;;;7.40;99.90;;;;;;5528651;26;20373;-77
2024/04/19 01:32:51;;;;;;;1.92;0.10;;;7.40;99.90;;;;;;5527887;26;20452;-77
2024/04/19 01:35:16;;;;;;;5.60;0.17;;;7.50;99.90;;;;;;5495565;26;20021;-77
2024/04/19 01:37:42;;;;;;;1.35;0.00;;;7.50;99.90;;;;;;5528689;26;20012;-78
2024/04/19 01:40:08;;;;;;;3.03;0.10;;;7.40;99.90;;;;;;5496006;26;19997;-78
2024/04/19 01:42:33;;;;;;;3.53;0.32;;;7.40;99.90;;;;;;5496128;26;20000;-78
2024/04/19 01:44:59;;;;;;;3.60;0.10;;;7.40;99.90;;;;;;5528293;26;19990;-77
2024/04/19 01:47:25;;;;;;;4.65;0.20;;;7.50;99.90;;;;;;5527312;26;20403;-78
2024/04/19 01:49:51;;;;;;;3.75;0.57;;;8.30;99.90;;;;;;5528537;26;19993;-77
2024/04/19 01:52:17;;;;;;;2.88;0.50;;;7.40;99.90;;;;;;5495339;26;20021;-77
2024/04/19 01:54:43;;;;;;;1.63;0.30;;;7.40;99.90;;;;;;5527975;26;20000;-77
2024/04/19 01:57:10;;;;;;;2.25;0.80;;;7.50;99.90;;;;;;5495685;26;19990;-78
2024/04/19 01:59:36;;;;;;;5.18;0.43;;;7.50;99.90;;;;;;5527891;26;20001;-77
2024/04/19 02:02:01;;;;;;;4.00;0.30;;;7.50;99.90;;;;;;5495199;26;20034;-77
2024/04/19 02:04:27;;;;;;;4.22;0.38;;;7.50;99.90;;;;;;5528107;26;20004;-79
2024/04/19 02:06:53;;;;;;;5.60;0.63;;;8.80;99.90;;;;;;5495049;26;20004;-77
2024/04/19 02:09:19;;;;;;;2.95;0.22;;;7.50;99.90;;;;;;5527842;26;20009;-77
2024/04/19 02:11:44;;;;;;;6.47;0.75;;;7.50;99.90;;;;;;5528192;26;19989;-77
2024/04/19 02:14:10;;;;;;;3.33;0.70;;;7.50;99.90;;;;;;5527930;26;20070;-77
2024/04/19 02:16:36;;;;;;;4.13;0.47;;;7.50;99.90;;;;;;5495341;26;19989;-77
2024/04/19 02:19:01;;;;;;;2.53;1.17;;;7.60;99.90;;;;;;5527530;26;20402;-76
2024/04/19 02:21:27;;;;;;;10.70;0.57;;;7.60;99.90;;;;;;5527683;26;19990;-78
2024/04/19 02:23:54;;;;;;;3.47;0.22;;;7.50;99.90;;;;;;5527171;26;20001;-77
2024/04/19 02:26:20;;;;;;;2.47;0.70;;;7.60;99.90;;;;;;5527289;26;19994;-77
2024/04/19 02:31:30;;;;;;;4.50;0.60;;;7.50;99.90;;;;;;5528290;26;20005;-77
2024/04/19 02:33:56;;;;;;;2.20;0.60;;;7.50;99.90;;;;;;5527364;26;19993;-77
2024/04/19 02:36:22;;;;;;;1.20;0.70;;;7.60;99.90;;;;;;5495052;26;20008;-77
2024/04/19 02:38:48;;;;;;;2.75;0.80;;;7.60;99.90;;;;;;5527842;26;19993;-77
2024/04/19 02:41:14;;;;;;;1.10;0.32;;;7.60;99.90;;;;;;5527738;26;20008;-77
2024/04/19 02:43:43;;;;;;;3.50;0.70;;;9.20;99.90;;;;;;5527619;26;20005;-78
2024/04/19 02:46:08;;;;;;;2.00;0.80;;;7.60;99.90;;;;;;5528098;26;20013;-77
2024/04/19 02:48:34;;;;;;;0.98;0.40;;;7.60;99.90;;;;;;5494960;26;19990;-77
2024/04/19 02:51:01;;;;;;;4.22;0.75;;;7.60;99.90;;;;;;5527134;26;20004;-77
2024/04/19 02:53:27;;;;;;;1.15;0.52;;;7.70;99.90;;;;;;5527590;26;20091;-77
2024/04/19 02:55:52;;;;;;;0.88;0.20;;;8.00;99.90;;;;;;5527645;26;19997;-78
2024/04/19 02:58:18;;;;;;;0.90;0.43;;;7.70;99.90;;;;;;5494289;26;19993;-77
2024/04/19 03:00:44;;;;;;;1.23;0.50;;;8.60;99.90;;;;;;5496774;26;19989;-77
2024/04/19 03:03:10;;;;;;;1.73;0.60;;;7.80;99.90;;;;;;5531214;26;20070;-77
2024/04/19 03:05:36;;;;;;;2.92;0.85;;;7.80;99.90;;;;;;5530601;26;20008;-77
2024/04/19 03:08:04;;;;;;;1.00;0.70;;;7.90;99.90;;;;;;5530477;26;19997;-77
2024/04/19 03:10:30;;;;;;;0.82;0.52;;;7.90;99.90;;;;;;5497716;26;20064;-77
2024/04/19 03:12:56;;;;;;;3.75;0.98;;;7.90;99.90;;;;;;5530694;26;20448;-77
2024/04/19 03:15:21;;;;;;;3.03;0.60;;;8.00;99.90;;;;;;5530283;26;19997;-77
2024/04/19 03:17:47;;;;;;;1.95;0.20;;;8.00;99.90;;;;;;5497454;26;20355;-76
2024/04/19 03:20:12;;;;;;;0.80;0.40;;;8.00;99.90;;;;;;5498070;26;20004;-76
2024/04/19 03:22:38;;;;;;;0.90;0.40;;;8.00;99.90;;;;;;5497932;26;19994;-77
2024/04/19 03:25:04;;;;;;;0.82;0.43;;;8.00;99.90;;;;;;5530398;26;20005;-77
2024/04/19 03:27:30;;;;;;;0.98;0.40;;;8.00;99.90;;;;;;5530256;26;19993;-77
2024/04/19 03:29:56;;;;;;;1.38;0.28;;;8.10;99.90;;;;;;5550918;25;20068;-77
2024/04/19 03:32:23;;;;;;;1.90;0.50;;;8.10;99.90;;;;;;5567572;25;19997;-77
2024/04/19 03:34:49;;;;;;;0.38;0.30;;;8.10;99.90;;;;;;5534732;25;19992;-77
2024/04/19 03:37:15;;;;;;;1.58;0.50;;;8.10;99.90;;;;;;5534260;25;19992;-77
2024/04/19 03:39:41;;;;;;;2.08;0.65;;;8.10;99.90;;;;;;5567615;25;19999;-77
2024/04/19 03:42:11;;;;;;;2.10;0.80;;;8.20;99.90;;;;;;5567694;25;19997;-77
2024/04/19 03:47:24;;;;;;;3.22;0.77;;;8.30;99.90;;;;;;5567414;25;20004;-77
2024/04/19 03:49:49;;;;;;;1.55;0.40;;;8.30;99.90;;;;;;5535000;25;20451;-76
2024/04/19 03:52:15;;;;;;;2.55;0.50;;;8.30;99.90;;;;;;5534888;25;20388;-77
2024/04/19 03:54:41;;;;;;;1.27;0.32;;;;;;;;;;5567319;25;19996;-77
2024/04/19 03:57:07;;;;;;;2.30;0.75;;;8.40;99.90;;;;;;5533927;25;20018;-77
2024/04/19 03:59:33;;;;;;;1.15;0.10;;;8.80;99.90;;;;;;5567566;25;20436;-77
2024/04/19 04:02:01;;;;;;;1.92;0.25;;;8.90;99.90;;;;;;5567721;25;20008;-77
2024/04/19 04:04:27;;;;;;;1.73;0.40;;;8.60;99.90;;;;;;5534586;25;19993;-77
2024/04/19 04:06:53;;;;;;;1.00;0.28;;;8.60;99.90;;;;;;5534393;25;20001;-76
2024/04/19 04:09:21;;;;;;;2.65;0.80;;;8.60;99.90;;;;;;5533982;25;20007;-77
2024/04/19 04:11:47;;;;;;;2.03;0.50;;;8.60;99.90;;;;;;5534119;25;20381;-77
2024/04/19 04:14:12;;;;;;;3.40;0.65;;;8.70;99.90;;;;;;5567148;25;20004;-77
2024/04/19 04:16:38;;;;;;;4.05;0.85;;;;;;;;;;5534145;25;20000;-78
2024/04/19 04:19:10;;;;;;;3.40;0.60;;;8.80;99.90;;;;;;5567667;25;20063;-76
2024/04/19 04:21:35;;;;;;;3.72;0.95;;;8.80;99.90;;;;;;5567326;25;19996;-76
2024/04/19 04:24:01;;;;;;;3.35;1.20;;;8.90;99.90;;;;;;5567028;25;20451;-77
2024/04/19 04:26:26;;;;;;;4.18;1.52;;;9.40;99.90;;;;;;5567124;25;20063;-76
2024/04/19 04:28:52;;;;;;;4.03;1.15;;;8.90;99.90;;;;;;5567305;25;20008;-77
2024/04/19 04:31:18;;;;;;;5.20;1.27;;;9.00;99.90;;;;;;5567310;25;20004;-77
2024/04/19 04:33:43;;;;;;;7.47;1.45;;;9.00;99.90;;;;;;5534145;25;20005;-78
2024/04/19 04:36:09;;;;;;;4.03;1.33;;;9.00;99.90;;;;;;5534073;25;20044;-76
2024/04/19 04:38:35;;;;;;;6.80;1.33;;;9.00;99.90;;;;;;5566511;25;20003;-77
2024/04/19 04:41:00;;;;;;;4.53;2.08;;;9.00;99.90;;;;;;5534096;25;19989;-77
2024/04/19 04:43:26;;;;;;;8.57;2.13;;;9.00;99.90;;;;;;5567072;25;20003;-77
2024/04/19 04:45:52;;;;;;;8.80;1.83;;;9.10;99.90;;;;;;5566497;25;19988;-77
2024/04/19 04:48:17;;;;;;;9.05;1.52;;;9.10;99.90;;;;;;5533545;25;19995;-77
2024/04/19 04:50:43;;;;;;;6.57;1.88;;;9.10;99.90;;;;;;5567088;25;20008;-77
2024/04/19 04:53:09;;;;;;;7.45;1.55;;;9.10;99.90;;;;;;5533613;25;20000;-77
2024/04/19 04:55:34;;;;;;;9.68;2.50;;;9.20;99.90;;;;;;5533471;25;20064;-77
2024/04/19 04:58:00;;;;;;;8.27;1.45;;;9.20;99.90;;;;;;5533253;25;20001;-77
2024/04/19 05:00:29;;;;;;;6.90;1.25;;;9.20;99.90;;;;;;5533773;25;20000;-77
2024/04/19 05:02:58;;;;;;;6.60;1.63;;;9.20;99.90;;;;;;5566799;25;20001;-77
2024/04/19 05:05:24;;;;;;;;;;;9.20;99.90;;;;;;5533803;25;19988;-77
2024/04/19 05:07:50;;;;;;;3.38;0.82;;;9.30;99.90;;;;;;5565918;25;19930;-77
2024/04/19 05:10:17;;;;;;;7.95;1.65;;;9.30;99.90;;;;;;5532986;25;19996;-77
2024/04/19 05:12:43;;;;;;;7.15;1.67;;;9.30;99.90;;;;;;5565876;25;20064;-76
2024/04/19 05:15:08;;;;;;;9.70;1.52;;;9.30;99.90;;;;;;5565914;25;20443;-77
2024/04/19 05:17:35;;;;;;;7.95;0.75;;;9.30;99.90;;;;;;5566006;25;19989;-77
2024/04/19 05:20:02;;;;;;;6.68;0.90;;;9.30;99.90;;;;;;5566053;25;19993;-77
2024/04/19 05:22:28;;;;;;;12.02;1.17;;;9.30;99.90;;;;;;5564743;25;19993;-77
2024/04/19 05:24:54;;;;;;;11.10;1.65;;;9.30;99.90;;;;;;5532467;25;20004;-76
2024/04/19 05:27:20;;;;;;;8.55;1.02;;;9.40;99.90;;;;;;5565427;25;19999;-76
2024/04/19 05:29:46;;;;;;;5.35;1.13;;;9.40;99.90;;;;;;5565940;25;19993;-77
2024/04/19 05:32:12;;;;;;;7.93;0.88;;;9.40;99.90;;;;;;5565319;25;20064;-76
2024/04/19 05:34:38;;;;;;;9.27;0.55;;;9.40;99.90;;;;;;5532744;25;19993;-77
2024/04/19 05:37:04;;;;;;;6.43;0.60;;;9.40;99.90;;;;;;5565670;25;20450;-76
2024/04/19 05:39:29;;;;;;;6.47;1.52;;;9.40;99.90;;;;;;5532829;25;19999;-77
2024/04/19 05:41:55;;;;;;;4.28;0.57;;;9.40;99.90;;;;;;5533099;25;20055;-77
2024/04/19 05:44:20;;;;;;;9.65;1.15;;;9.40;99.90;;;;;;5566228;25;19993;-77
2024/04/19 05:46:46;;;;;;;8.45;0.90;;;9.50;99.90;;;;;;5566138;25;20079;-77
2024/04/19 05:49:12;;;;;;;7.03;0.40;;;9.50;99.90;;;;;;5532899;25;19985;-77
2024/04/19 05:51:37;;;;;;;12.00;0.80;;;9.50;99.90;;;;;;5532714;25;20444;-78
2024/04/19 05:54:04;;;;;;;6.43;0.65;;;9.50;99.90;;;;;;5565703;25;20001;-77
2024/04/19 05:56:30;;;;;;;9.48;1.10;;;9.50;99.90;;;;;;5532318;25;20004;-77
2024/04/19 05:58:57;;;;;;;9.50;0.20;;;9.50;99.90;;;;;;5564994;25;20328;-76
2024/04/19 06:01:24;;;;;;;5.25;0.50;;;9.50;99.90;;;;;;5565500;25;20001;-76
2024/04/19 06:03:51;;;;;;;8.70;1.05;;;9.50;99.90;;;;;;5565121;25;19993;-76
2024/04/19 06:06:16;;;;;;;6.47;0.70;;;9.50;99.90;;;;;;5565853;25;19999;-76
2024/04/19 06:08:42;;;;;;;6.05;0.50;;;9.60;99.90;;;;;;5532431;25;20064;-76
2024/04/19 06:11:08;;;;;;;7.72;1.17;;;9.50;99.90;;;;;;5533230;25;19995;-76
2024/04/19 06:13:33;;;;;;;8.15;0.20;;;9.60;99.90;;;;;;5566168;25;20067;-76
2024/04/19 06:15:59;;;;;;;10.50;0.75;;;9.60;99.90;;;;;;5566341;25;19996;-77
2024/04/19 06:18:25;;;;;;;14.82;0.85;;;9.70;99.90;;;;;;5566004;25;20020;-76
2024/04/19 06:20:51;;;;;;;12.48;1.65;;;9.70;99.90;;;;;;5565566;25;20463;-77
2024/04/19 06:23:17;;;;;;;13.15;0.73;;;10.10;99.90;;;;;;5565262;25;19989;-78
2024/04/19 06:25:42;;;;;;;13.55;0.70;;;9.80;99.90;;;;;;5532568;25;19988;-76
2024/04/19 06:28:08;;;;;;;12.43;1.13;;;9.80;99.90;;;;;;5566560;25;20008;-77
2024/04/19 06:30:33;;;;;;;5.93;0.47;;;9.90;99.90;;;;;;5538393;25;20004;-77
2024/04/19 06:32:59;;;;;;;10.10;0.52;;;9.90;99.90;;;;;;5527675;26;20065;-77
2024/04/19 06:35:25;;;;;;;9.55;0.65;;;9.90;99.90;;;;;;5493007;26;20453;-76
2024/04/19 06:37:51;;;;;;;6.25;0.43;;;9.90;99.90;;;;;;5495812;26;19994;-76
2024/04/19 06:40:17;;;;;;;13.07;1.10;;;10.00;99.90;;;;;;5494980;26;20330;-76
2024/04/19 06:42:42;;;;;;;16.40;0.82;;;10.00;99.90;;;;;;5494879;26;20001;-77
2024/04/19 06:45:08;;;;;;;8.48;0.98;;;10.10;99.90;;;;;;5527234;26;19989;-77
2024/04/19 06:47:34;;;;;;;6.05;0.82;;;10.20;99.90;;;;;;5527209;26;19993;-76
2024/04/19 06:50:00;;;;;;;14.13;1.27;;;10.10;99.90;;;;;;5494779;26;19994;-76
2024/04/19 06:52:25;;;;;;;11.30;0.95;;;10.10;99.90;;;;;;5528132;26;20005;-76
2024/04/19 06:54:51;;;;;;;12.75;1.42;;;10.10;99.90;;;;;;5527153;26;20000;-77
2024/04/19 06:57:18;;;;;;;8.63;0.70;;;10.10;99.90;;;;;;5526881;26;20003;-77
2024/04/19 06:59:44;;;;;;;8.90;0.70;;;10.10;99.90;;;;;;5494479;26;20057;-77
2024/04/19 07:02:13;;;;;;;10.65;0.80;;;10.60;99.90;;;;;;5526887;26;20401;-77
2024/04/19 07:04:39;;;;;;;5.18;0.47;;;10.00;99.90;;;;;;5494356;26;20409;-76
2024/04/19 07:07:04;;;;;;;14.82;0.85;;;10.00;99.90;;;;;;5494252;26;20043;-77
2024/04/19 07:09:30;;;;;;;11.60;0.65;;;10.00;99.90;;;;;;5526664;26;20009;-77
2024/04/19 07:11:56;;;;;;;3.25;0.10;;;10.00;99.90;;;;;;5527426;26;20000;-77
2024/04/19 07:14:22;;;;;;;6.90;0.32;;;9.90;99.90;;;;;;5527332;26;20001;-77
2024/04/19 07:16:48;;;;;;;10.63;0.70;;;9.70;99.90;;;;;;5494268;26;20440;-77
2024/04/19 07:19:14;;;;;;;3.97;0.00;;;9.70;99.90;;;;;;5494551;26;20083;-77
2024/04/19 07:21:39;;;;;;;3.83;0.30;;;9.60;99.90;;;;;;5526758;26;19998;-77
2024/04/19 07:24:06;;;;;;;3.38;0.00;;;9.60;99.90;;;;;;5526995;26;19993;-77
2024/04/19 07:26:34;;;;;;;2.70;0.45;;;9.60;99.90;;;;;;5526724;26;20065;-77
2024/04/19 07:29:01;;;;;;;5.47;0.73;;;9.60;99.90;;;;;;5494004;26;20005;-77
2024/04/19 07:31:28;;;;;;;4.30;0.43;;;9.70;99.90;;;;;;5493831;26;20452;-77
2024/04/19 07:33:54;;;;;;;4.18;0.45;;;9.70;99.90;;;;;;5526776;26;19990;-77
2024/04/19 07:36:19;;;;;;;3.85;0.30;;;9.70;99.90;;;;;;5494436;26;20008;-77
2024/04/19 07:38:45;;;;;;;2.50;0.38;;;9.80;99.90;;;;;;5493807;26;20426;-77
2024/04/19 07:41:11;;;;;;;1.40;0.10;;;9.80;99.90;;;;;;5526358;26;19999;-76
2024/04/19 07:43:37;;;;;;;6.07;0.98;;;9.90;99.90;;;;;;5494393;26;19997;-77
2024/04/19 07:46:03;;;;;;;1.08;0.00;;;10.00;99.90;;;;;;5495377;26;19989;-77
2024/04/19 07:48:28;;;;;;;2.08;0.00;;;10.10;99.90;;;;;;5530215;26;19994;-77
2024/04/19 07:50:54;;;;;;;3.47;0.20;;;10.00;99.90;;;;;;5530198;26;20008;-76
2024/04/19 07:53:22;;;;;;;4.10;0.10;;;10.10;99.90;;;;;;5497808;26;19985;-77
2024/04/19 07:55:47;;;;;;;3.55;0.32;;;9.90;99.90;;;;;;5529764;26;19989;-77
2024/04/19 07:58:13;;;;;;;1.15;0.00;;;10.00;99.90;;;;;;5530584;26;20017;-77
2024/04/19 08:00:39;;;;;;;3.10;0.13;;;9.90;99.90;;;;;;5530018;26;20004;-78
2024/04/19 08:03:05;;;;;;;3.83;0.00;;;9.90;99.90;;;;;;5530683;26;20460;-78
2024/04/19 08:05:30;;;;;;;7.15;0.00;;;10.00;99.90;;;;;;5530654;26;19993;-77
2024/04/19 08:07:57;;;;;;;5.28;0.20;;;9.90;99.90;;;;;;5497864;26;20000;-78
2024/04/19 08:10:24;;;;;;;4.15;0.10;;;10.00;99.90;;;;;;5530661;26;19990;-78
2024/04/19 08:12:50;;;;;;;3.22;0.10;;;10.10;99.90;;;;;;5530610;26;20037;-78
2024/04/19 08:15:16;;;;;;;5.50;0.40;;;10.20;99.90;;;;;;5530097;26;19990;-77
2024/04/19 08:17:42;;;;;;;7.13;0.57;;;10.40;99.90;;;;;;5530445;26;20459;-78
2024/04/19 08:20:08;;;;;;;6.30;0.25;;;10.50;99.90;;;;;;5529472;25;19997;-78
2024/04/19 08:22:34;;;;;;;4.63;0.30;;;10.50;99.90;;;;;;5530717;26;19989;-77
2024/04/19 08:24:59;;;;;;;2.05;0.30;;;10.50;99.90;;;;;;5530289;26;19993;-77
2024/04/19 08:27:28;;;;;;;4.38;0.38;;;10.50;99.90;;;;;;5497838;26;19990;-77
2024/04/19 08:29:54;;;;;;;;;;;10.50;99.90;;;;;;5498418;26;20033;-77
2024/04/19 08:32:20;;;;;;;4.53;0.00;;;10.50;99.90;;;;;;5498092;26;19992;-77
2024/04/19 08:34:54;;;;;;;9.38;0.17;;;10.40;99.90;;;;;;5498190;26;20412;-78
2024/04/19 08:37:20;;;;;;;7.57;0.30;;;10.40;99.90;;;;;;5498676;26;20012;-77
2024/04/19 08:39:49;;;;;;;3.78;0.30;;;10.20;99.90;;;;;;5530946;26;20000;-78
2024/04/19 08:42:16;;;;;;;1.02;0.00;;;10.10;99.90;;;;;;5531365;26;20005;-77
2024/04/19 08:44:44;;;;;;;4.25;0.15;;;10.00;99.90;;;;;;5531252;26;20385;-78
2024/04/19 08:47:15;;;;;;;2.45;0.00;;;10.00;99.90;;;;;;5497400;26;20001;-77
2024/04/19 08:49:43;;;;;;;3.78;0.15;;;10.00;99.90;;;;;;5498080;26;20004;-77
2024/04/19 08:52:09;;;;;;;2.47;0.28;;;9.90;99.90;;;;;;5530846;26;20445;-78
2024/04/19 08:54:36;;;;;;;2.35;0.10;;;9.80;99.90;;;;;;5529807;26;20007;-78
2024/04/19 08:57:04;;;;;;;3.13;0.00;;;9.90;99.90;;;;;;5530029;26;20010;-76
2024/04/19 08:59:32;;;;;;;3.60;0.35;;;10.00;99.90;;;;;;5496974;26;20008;-78
2024/04/19 09:01:57;;;;;;;2.17;0.00;;;10.20;99.90;;;;;;5497751;26;20013;-78
2024/04/19 09:04:24;;;;;;;2.30;0.00;;;10.20;99.90;;;;;;5530575;26;20085;-78
2024/04/19 09:06:50;;;;;;;0.75;0.00;;;10.70;99.90;;;;;;5530113;26;20012;-79
2024/04/19 09:09:15;;;;;;;2.95;0.00;;;10.70;99.90;;;;;;5530952;26;19993;-78
2024/04/19 09:11:44;;;;;;;1.98;0.00;;;11.00;99.90;;;;;;5530108;26;19997;-78
2024/04/19 09:14:10;;;;;;;5.57;0.00;;;11.10;99.90;;;;;;5497886;26;20029;-78
2024/04/19 09:16:36;;;;;;;1.80;0.00;;;11.20;99.90;;;;;;5497518;26;19993;-79
2024/04/19 09:19:02;;;;;;;0.35;0.00;;;11.40;99.90;;;;;;5498033;26;19993;-79
2024/04/19 09:21:30;;;;;;;2.33;0.10;;;11.40;99.90;;;;;;5497490;26;19993;-78
2024/04/19 09:23:55;;;;;;;0.00;0.00;;;11.70;99.90;;;;;;5498293;26;20382;-78
2024/04/19 09:26:26;;;;;;;0.65;0.15;;;11.70;99.90;;;;;;5530317;26;19993;-78
2024/04/19 09:28:53;;;;;;;0.38;0.00;;;11.80;99.90;;;;;;5497500;26;19997;-78
2024/04/19 09:31:20;;;;;;;2.63;0.00;;;11.90;99.90;;;;;;5529129;26;20436;-78
2024/04/19 09:33:46;;;;;;;0.00;0.00;;;12.00;99.90;;;;;;5497145;26;20003;-78
2024/04/19 09:36:18;;;;;;;0.20;0.00;;;12.10;99.90;;;;;;5496585;26;19993;-78
2024/04/19 09:38:44;;;;;;;1.70;0.00;;;12.20;99.90;;;;;;5529978;26;20412;-78
2024/04/19 09:41:17;;;;;;;0.52;0.00;;;12.30;99.90;;;;;;5497549;26;20451;-79
2024/04/19 09:43:50;;;;;;;1.45;0.00;;;12.30;99.90;;;;;;5529933;26;19993;-78
2024/04/19 09:46:23;;;;;;;0.00;0.00;;;12.30;99.90;;;;;;5529564;26;20521;-78
2024/04/19 09:48:52;;;;;;;2.50;0.32;;;12.10;99.90;;;;;;5496764;26;20075;-78
2024/04/19 09:51:20;;;;;;;0.63;0.00;;;12.00;99.90;;;;;;5528906;26;20005;-78
2024/04/19 09:53:52;;;;;;;1.00;0.00;;;11.90;99.90;;;;;;5528951;26;20005;-78
2024/04/19 09:56:48;;;;;;;0.17;0.00;;;11.80;99.90;;;;;;5495986;26;19997;-79
2024/04/19 09:59:16;;;;;;;1.70;0.50;;;11.70;99.90;;;;;;5528937;26;20005;-78
2024/04/19 10:01:42;;;;;;;4.50;0.00;;;11.90;99.90;;;;;;5529129;26;19997;-78
2024/04/19 10:04:10;;;;;;;2.45;0.03;;;11.90;99.90;;;;;;5529226;26;20363;-79
2024/04/19 10:06:38;;;;;;;0.85;0.00;;;12.30;99.90;;;;;;5530435;26;20354;-78
2024/04/19 10:09:14;;;;;;;2.97;0.75;;;12.60;99.90;;;;;;5527872;26;20062;-78
2024/04/19 10:11:48;;;;;;;2.78;0.03;;;12.90;99.90;;;;;;5497200;26;20325;-78
2024/04/19 10:14:15;;;;;;;0.00;0.00;;;13.20;99.90;;;;;;5496842;26;20008;-78
2024/04/19 10:16:41;;;;;;;0.22;0.00;;;13.30;99.90;;;;;;5530023;26;19997;-78
2024/04/19 10:19:07;;;;;;;4.03;0.20;;;13.30;99.90;;;;;;5529919;26;19997;-78
2024/04/19 10:21:36;;;;;;;4.53;0.00;;;13.30;99.90;;;;;;5530595;26;20041;-78
2024/04/19 10:24:18;;;;;;;2.38;0.25;;;13.40;99.90;;;;;;5497931;26;20043;-79
2024/04/19 10:26:46;;;;;;;5.53;0.00;;;13.40;99.90;;;;;;5528980;26;20337;-78
2024/04/19 10:29:14;;;;;;;2.85;0.00;;;13.40;99.90;;;;;;5495868;26;20001;-78
2024/04/19 10:31:46;;;;;;;2.38;0.00;;;13.50;99.90;;;;;;5495708;26;20062;-78
2024/04/19 10:34:12;;;;;;;1.45;0.10;;;13.50;99.90;;;;;;5528543;26;19993;-79
2024/04/19 10:36:39;;;;;;;4.25;0.00;;;13.50;99.90;;;;;;5495850;26;19989;-78
2024/04/19 10:39:07;;;;;;;2.13;0.00;;;13.20;99.90;;;;;;5528704;26;20031;-78
2024/04/19 10:41:35;;;;;;;3.57;0.40;;;12.90;99.90;;;;;;5529139;26;20437;-79
2024/04/19 10:44:01;;;;;;;2.72;0.28;;;12.70;99.90;;;;;;5528689;26;19994;-78
2024/04/19 10:46:27;;;;;;;4.15;0.08;;;12.40;99.90;;;;;;5495592;26;19997;-78
2024/04/19 10:48:53;;;;;;;8.15;0.35;;;12.40;99.90;;;;;;5495889;26;19989;-78
2024/04/19 10:51:20;;;;;;;2.15;0.00;;;12.30;99.90;;;;;;5528408;26;19997;-78
2024/04/19 10:53:47;;;;;;;8.40;0.20;;;12.20;99.90;;;;;;5529160;26;20008;-78
2024/04/19 10:56:12;;;;;;;1.88;0.10;;;12.10;99.90;;;;;;5495456;26;20001;-78
2024/04/19 10:58:38;;;;;;;4.50;0.32;;;12.30;99.90;;;;;;5528092;26;19997;-78
2024/04/19 11:01:04;;;;;;;2.40;0.00;;;12.30;99.90;;;;;;5495315;26;19994;-79
2024/04/19 11:03:29;;;;;;;5.43;0.45;;;12.40;99.90;;;;;;5529108;26;19993;-78
2024/04/19 11:05:56;;;;;;;5.28;0.63;;;12.70;99.90;;;;;;5496469;26;20005;-79
2024/04/19 11:08:23;;;;;;;6.72;0.70;;;12.70;99.90;;;;;;5495904;26;19989;-79
2024/04/19 11:10:48;;;;;;;4.47;0.00;;;13.00;99.90;;;;;;5496096;26;19989;-79
2024/04/19 11:13:14;;;;;;;11.10;1.48;;;12.90;99.90;;;;;;5527600;26;19998;-78
2024/04/19 11:15:40;;;;;;;4.22;0.03;;;12.80;99.90;;;;;;5495147;26;20061;-78
2024/04/19 11:18:08;;;;;;;1.75;0.10;;;12.00;99.90;;;;;;5495543;26;19990;-78
2024/04/19 11:20:35;;;;;;;1.40;0.00;;;11.70;99.90;;;;;;5558797;25;20348;-78
2024/04/19 11:23:02;;;;;;;2.05;0.00;;;11.00;99.90;;;;;;5569528;25;19996;-78
2024/04/19 11:25:34;;;;;;;0.55;0.00;;;10.80;99.90;;;;;;5569825;25;20344;-78
2024/04/19 11:28:00;;;;;;;3.83;0.22;;;10.40;99.90;;;;;;5569463;25;20033;-78
2024/04/19 11:30:25;;;;;;;0.73;0.00;;;10.50;99.90;;;;;;5569260;25;19997;-78
2024/04/19 11:32:54;;;;;;;0.10;0.00;;;10.70;99.90;;;;;;5536387;25;19997;-78
2024/04/19 11:35:20;;;;;;;1.48;0.00;;;11.40;99.90;;;;;;5536633;25;20007;-79
2024/04/19 11:37:49;;;;;;;0.80;0.00;;;11.80;99.90;;;;;;5535998;25;20332;-78
2024/04/19 11:40:21;;;;;;;4.82;0.55;;;12.20;99.90;;;;;;5536731;25;19998;-79
2024/04/19 11:42:51;;;;;;;6.45;0.55;;;12.30;99.90;;;;;;5537037;25;20472;-79
2024/04/19 11:45:21;;;;;;;3.90;0.00;;;12.30;99.90;;;;;;5569661;25;20469;-78
2024/04/19 11:47:48;;;;;;;5.63;0.60;;;12.10;99.90;;;;;;5569895;25;19996;-78
2024/04/19 11:50:14;;;;;;;3.42;0.40;;;12.10;99.90;;;;;;5536408;25;20008;-79
2024/04/19 11:52:39;;;;;;;1.98;0.28;;;12.20;99.90;;;;;;5536367;25;20444;-79
2024/04/19 11:55:05;;;;;;;6.00;1.17;;;12.20;99.90;;;;;;5568802;25;19997;-79
2024/04/19 11:57:31;;;;;;;3.65;0.25;;;12.40;99.90;;;;;;5535933;25;20004;-78
2024/04/19 11:59:56;;;;;;;3.88;0.00;;;12.60;99.90;;;;;;5569372;25;20004;-78
2024/04/19 12:02:22;;;;;;;7.18;0.17;;;13.10;99.90;;;;;;5568666;25;19993;-78
2024/04/19 12:04:47;;;;;;;5.28;0.10;;;13.10;99.90;;;;;;5535775;25;19997;-78
2024/04/19 12:07:13;;;;;;;3.58;0.40;;;13.50;99.90;;;;;;5569096;25;20012;-79
2024/04/19 12:09:40;;;;;;;5.25;0.00;;;13.70;99.90;;;;;;5569947;25;20458;-79
2024/04/19 12:12:06;;;;;;;9.20;0.20;;;13.80;99.90;;;;;;5569678;25;19993;-78
2024/04/19 12:14:34;;;;;;;3.60;0.10;;;13.80;99.90;;;;;;5569211;25;20008;-78
2024/04/19 12:17:05;;;;;;;2.08;0.20;;;13.60;99.90;;;;;;5535742;25;20444;-78
2024/04/19 12:19:33;;;;;;;1.77;0.17;;;13.10;99.90;;;;;;5569372;25;20025;-79
2024/04/19 12:21:59;;;;;;;3.15;0.10;;;12.90;99.90;;;;;;5535805;25;20003;-78
2024/04/19 12:24:25;;;;;;;3.33;0.00;;;11.90;99.90;;;;;;5568277;25;19996;-78
2024/04/19 12:26:50;;;;;;;4.20;0.17;;;11.50;99.90;;;;;;5568674;25;19996;-78
2024/04/19 12:29:16;;;;;;;0.90;0.00;;;11.50;99.90;;;;;;5535993;25;19997;-78
2024/04/19 12:31:42;;;;;;;7.60;0.17;;;;;;;;;;5536257;25;20319;-78
2024/04/19 12:34:08;;;;;;;6.18;0.00;;;11.20;99.90;;;;;;5569612;25;20012;-79
2024/04/19 12:36:34;;;;;;;2.30;0.08;;;11.60;99.90;;;;;;5536249;25;19993;-79
2024/04/19 12:38:59;;;;;;;5.75;0.50;;;12.00;99.90;;;;;;5536413;25;20004;-78
2024/04/19 12:41:25;;;;;;;1.75;0.20;;;12.00;99.90;;;;;;5536098;25;19993;-78
2024/04/19 12:43:51;;;;;;;0.85;0.00;;;11.30;99.90;;;;;;5569204;25;19997;-78
2024/04/19 12:46:17;;;;;;;0.82;0.10;;;11.20;99.90;;;;;;5536946;25;19992;-78
2024/04/19 12:48:44;;;;;;;1.75;0.00;;;10.70;99.90;;;;;;5530852;25;20000;-78
2024/04/19 12:51:10;;;;;;;1.73;0.45;;;10.50;99.90;;;;;;5499158;26;20001;-78
2024/04/19 12:53:36;;;;;;;2.92;0.00;;;10.50;99.90;;;;;;5531903;26;20405;-78
2024/04/19 12:56:05;;;;;;;3.47;0.17;;;10.80;99.90;;;;;;5531004;26;20008;-79